sensor_id;sensor_type;location;lat;lon;timestamp;temperature;humidity
4187;DHT22;2107;52.306;10.484;2023-05-18T00:02:07;2.70;99.90
4187;DHT22;2107;52.306;10.484;2023-05-18T00:04:34;2.60;99.90
4187;DHT22;2107;52.306;10.484;2023-05-18T00:07:03;2.60;99.90
4187;DHT22;2107;52.306;10.484;2023-05-18T00:09:32;2.70;99.90
4187;DHT22;2107;52.306;10.484;2023-05-18T00:12:00;2.80;99.90
4187;DHT22;2107;52.306;10.484;2023-05-18T00:14:27;2.80;99.90
4187;DHT22;2107;52.306;10.484;2023-05-18T00:16:54;2.70;99.90
4187;DHT22;2107;52.306;10.484;2023-05-18T00:19:23;2.70;99.90
4187;DHT22;2107;52.306;10.484;2023-05-18T00:21:51;2.70;99.90
4187;DHT22;2107;52.306;10.484;2023-05-18T00:24:22;2.50;99.90
4187;DHT22;2107;52.306;10.484;2023-05-18T00:26:49;2.40;99.90
4187;DHT22;2107;52.306;10.484;2023-05-18T00:29:15;2.40;99.90
4187;DHT22;2107;52.306;10.484;2023-05-18T00:31:42;2.40;99.90
4187;DHT22;2107;52.306;10.484;2023-05-18T00:34:11;2.30;99.90
4187;DHT22;2107;52.306;10.484;2023-05-18T00:36:38;2.20;99.90
4187;DHT22;2107;52.306;10.484;2023-05-18T00:39:07;2.20;99.90
4187;DHT22;2107;52.306;10.484;2023-05-18T00:41:35;2.50;99.90
4187;DHT22;2107;52.306;10.484;2023-05-18T00:44:03;2.40;99.90
4187;DHT22;2107;52.306;10.484;2023-05-18T00:46:30;2.50;99.90
4187;DHT22;2107;52.306;10.484;2023-05-18T00:48:58;2.30;99.90
4187;DHT22;2107;52.306;10.484;2023-05-18T00:51:26;2.30;99.90
4187;DHT22;2107;52.306;10.484;2023-05-18T00:53:55;2.30;99.90
4187;DHT22;2107;52.306;10.484;2023-05-18T00:56:22;2.40;99.90
4187;DHT22;2107;52.306;10.484;2023-05-18T00:58:52;2.50;99.90
4187;DHT22;2107;52.306;10.484;2023-05-18T01:01:22;2.50;99.90
4187;DHT22;2107;52.306;10.484;2023-05-18T01:03:53;2.40;99.90
4187;DHT22;2107;52.306;10.484;2023-05-18T01:06:21;2.30;99.90
4187;DHT22;2107;52.306;10.484;2023-05-18T01:08:50;2.30;99.90
4187;DHT22;2107;52.306;10.484;2023-05-18T01:11:23;2.20;99.90
4187;DHT22;2107;52.306;10.484;2023-05-18T01:14:00;2.00;99.90
4187;DHT22;2107;52.306;10.484;2023-05-18T01:16:34;2.00;99.90
4187;DHT22;2107;52.306;10.484;2023-05-18T01:19:10;1.90;99.90
4187;DHT22;2107;52.306;10.484;2023-05-18T01:21:49;1.90;99.90
4187;DHT22;2107;52.306;10.484;2023-05-18T01:24:24;1.80;99.90
4187;DHT22;2107;52.306;10.484;2023-05-18T01:26:56;1.80;99.90
4187;DHT22;2107;52.306;10.484;2023-05-18T01:29:25;1.80;99.90
4187;DHT22;2107;52.306;10.484;2023-05-18T01:31:53;1.70;99.90
4187;DHT22;2107;52.306;10.484;2023-05-18T01:34:21;1.60;99.90
4187;DHT22;2107;52.306;10.484;2023-05-18T01:36:47;1.50;99.90
4187;DHT22;2107;52.306;10.484;2023-05-18T01:39:14;1.50;99.90
4187;DHT22;2107;52.306;10.484;2023-05-18T01:41:48;1.60;99.90
4187;DHT22;2107;52.306;10.484;2023-05-18T01:44:19;1.70;99.90
4187;DHT22;2107;52.306;10.484;2023-05-18T01:46:54;1.80;99.90
4187;DHT22;2107;52.306;10.484;2023-05-18T01:49:28;1.80;99.90
4187;DHT22;2107;52.306;10.484;2023-05-18T01:51:58;1.70;99.90
4187;DHT22;2107;52.306;10.484;2023-05-18T01:54:27;1.60;99.90
4187;DHT22;2107;52.306;10.484;2023-05-18T01:56:57;1.50;99.90
4187;DHT22;2107;52.306;10.484;2023-05-18T01:59:26;1.50;99.90
4187;DHT22;2107;52.306;10.484;2023-05-18T02:01:57;1.40;99.90
4187;DHT22;2107;52.306;10.484;2023-05-18T02:04:24;1.30;99.90
4187;DHT22;2107;52.306;10.484;2023-05-18T02:06:51;1.20;99.90
4187;DHT22;2107;52.306;10.484;2023-05-18T02:09:19;1.10;99.90
4187;DHT22;2107;52.306;10.484;2023-05-18T02:11:46;1.10;99.90
4187;DHT22;2107;52.306;10.484;2023-05-18T02:14:13;1.20;99.90
4187;DHT22;2107;52.306;10.484;2023-05-18T02:16:41;1.20;99.90
4187;DHT22;2107;52.306;10.484;2023-05-18T02:19:11;1.40;99.90
4187;DHT22;2107;52.306;10.484;2023-05-18T02:21:39;1.40;99.90
4187;DHT22;2107;52.306;10.484;2023-05-18T02:24:07;1.40;99.90
4187;DHT22;2107;52.306;10.484;2023-05-18T02:26:33;1.20;99.90
4187;DHT22;2107;52.306;10.484;2023-05-18T02:29:02;1.10;99.90
4187;DHT22;2107;52.306;10.484;2023-05-18T02:31:28;1.20;99.90
4187;DHT22;2107;52.306;10.484;2023-05-18T02:33:57;1.30;99.90
4187;DHT22;2107;52.306;10.484;2023-05-18T02:36:24;1.30;99.90
4187;DHT22;2107;52.306;10.484;2023-05-18T02:38:51;1.20;99.90
4187;DHT22;2107;52.306;10.484;2023-05-18T02:41:18;1.30;99.90
4187;DHT22;2107;52.306;10.484;2023-05-18T02:43:45;1.30;99.90
4187;DHT22;2107;52.306;10.484;2023-05-18T02:46:12;1.20;99.90
4187;DHT22;2107;52.306;10.484;2023-05-18T02:48:39;1.20;99.90
4187;DHT22;2107;52.306;10.484;2023-05-18T02:51:11;1.20;99.90
4187;DHT22;2107;52.306;10.484;2023-05-18T02:53:38;1.30;99.90
4187;DHT22;2107;52.306;10.484;2023-05-18T02:56:05;1.30;99.90
4187;DHT22;2107;52.306;10.484;2023-05-18T02:58:32;1.20;99.90
4187;DHT22;2107;52.306;10.484;2023-05-18T03:00:59;1.00;99.90
4187;DHT22;2107;52.306;10.484;2023-05-18T03:03:28;1.00;99.90
4187;DHT22;2107;52.306;10.484;2023-05-18T03:05:54;1.00;99.90
4187;DHT22;2107;52.306;10.484;2023-05-18T03:08:23;1.00;99.90
4187;DHT22;2107;52.306;10.484;2023-05-18T03:10:51;1.00;99.90
4187;DHT22;2107;52.306;10.484;2023-05-18T03:13:18;1.00;99.90
4187;DHT22;2107;52.306;10.484;2023-05-18T03:15:45;1.00;99.90
4187;DHT22;2107;52.306;10.484;2023-05-18T03:18:12;0.90;99.90
4187;DHT22;2107;52.306;10.484;2023-05-18T03:20:39;0.90;99.90
4187;DHT22;2107;52.306;10.484;2023-05-18T03:23:06;0.80;99.90
4187;DHT22;2107;52.306;10.484;2023-05-18T03:25:34;0.80;99.90
4187;DHT22;2107;52.306;10.484;2023-05-18T03:28:02;0.80;99.90
4187;DHT22;2107;52.306;10.484;2023-05-18T03:30:30;0.90;99.90
4187;DHT22;2107;52.306;10.484;2023-05-18T03:32:57;1.00;99.90
4187;DHT22;2107;52.306;10.484;2023-05-18T03:35:24;1.10;99.90
4187;DHT22;2107;52.306;10.484;2023-05-18T03:37:51;1.10;99.90
4187;DHT22;2107;52.306;10.484;2023-05-18T03:40:19;0.90;99.90
4187;DHT22;2107;52.306;10.484;2023-05-18T03:42:47;0.80;99.90
4187;DHT22;2107;52.306;10.484;2023-05-18T03:45:14;0.70;99.90
4187;DHT22;2107;52.306;10.484;2023-05-18T03:47:41;0.70;99.90
4187;DHT22;2107;52.306;10.484;2023-05-18T03:50:08;0.70;99.90
4187;DHT22;2107;52.306;10.484;2023-05-18T03:52:35;0.90;99.90
4187;DHT22;2107;52.306;10.484;2023-05-18T03:55:03;1.10;99.90
4187;DHT22;2107;52.306;10.484;2023-05-18T03:57:30;1.20;99.90
4187;DHT22;2107;52.306;10.484;2023-05-18T03:59:59;1.30;99.90
4187;DHT22;2107;52.306;10.484;2023-05-18T04:02:26;1.40;99.90
4187;DHT22;2107;52.306;10.484;2023-05-18T04:04:53;1.70;99.90
4187;DHT22;2107;52.306;10.484;2023-05-18T04:07:22;1.90;99.90
4187;DHT22;2107;52.306;10.484;2023-05-18T04:09:50;2.00;99.90
4187;DHT22;2107;52.306;10.484;2023-05-18T04:12:17;2.00;99.90
4187;DHT22;2107;52.306;10.484;2023-05-18T04:14:44;2.00;99.90
4187;DHT22;2107;52.306;10.484;2023-05-18T04:17:15;1.90;99.90
4187;DHT22;2107;52.306;10.484;2023-05-18T04:19:42;1.90;99.90
4187;DHT22;2107;52.306;10.484;2023-05-18T04:22:10;2.00;99.90
4187;DHT22;2107;52.306;10.484;2023-05-18T04:24:36;2.20;99.90
4187;DHT22;2107;52.306;10.484;2023-05-18T04:27:06;2.30;99.90
4187;DHT22;2107;52.306;10.484;2023-05-18T04:29:34;2.50;99.90
4187;DHT22;2107;52.306;10.484;2023-05-18T04:32:03;2.50;99.90
4187;DHT22;2107;52.306;10.484;2023-05-18T04:34:33;2.60;99.90
4187;DHT22;2107;52.306;10.484;2023-05-18T04:37:02;2.60;99.90
4187;DHT22;2107;52.306;10.484;2023-05-18T04:39:30;2.50;99.90
4187;DHT22;2107;52.306;10.484;2023-05-18T04:41:57;2.60;99.90
4187;DHT22;2107;52.306;10.484;2023-05-18T04:44:24;3.10;99.90
4187;DHT22;2107;52.306;10.484;2023-05-18T04:46:51;3.90;99.90
4187;DHT22;2107;52.306;10.484;2023-05-18T04:49:18;4.20;99.90
4187;DHT22;2107;52.306;10.484;2023-05-18T04:51:48;4.70;99.90
4187;DHT22;2107;52.306;10.484;2023-05-18T04:54:20;5.20;99.90
4187;DHT22;2107;52.306;10.484;2023-05-18T04:56:48;5.40;99.90
4187;DHT22;2107;52.306;10.484;2023-05-18T04:59:14;5.70;99.90
4187;DHT22;2107;52.306;10.484;2023-05-18T05:01:41;5.90;99.90
4187;DHT22;2107;52.306;10.484;2023-05-18T05:04:08;6.30;99.90
4187;DHT22;2107;52.306;10.484;2023-05-18T05:06:35;6.60;99.90
4187;DHT22;2107;52.306;10.484;2023-05-18T05:09:04;6.60;99.90
4187;DHT22;2107;52.306;10.484;2023-05-18T05:11:31;5.80;99.90
4187;DHT22;2107;52.306;10.484;2023-05-18T05:13:57;6.40;99.90
4187;DHT22;2107;52.306;10.484;2023-05-18T05:16:24;7.30;99.90
4187;DHT22;2107;52.306;10.484;2023-05-18T05:18:51;8.20;99.90
4187;DHT22;2107;52.306;10.484;2023-05-18T05:21:18;8.50;99.90
4187;DHT22;2107;52.306;10.484;2023-05-18T05:23:45;8.70;99.90
4187;DHT22;2107;52.306;10.484;2023-05-18T05:26:13;8.60;99.90
4187;DHT22;2107;52.306;10.484;2023-05-18T05:28:40;9.40;99.90
4187;DHT22;2107;52.306;10.484;2023-05-18T05:31:07;10.30;99.90
4187;DHT22;2107;52.306;10.484;2023-05-18T05:33:34;10.80;99.90
4187;DHT22;2107;52.306;10.484;2023-05-18T05:36:01;10.90;99.90
4187;DHT22;2107;52.306;10.484;2023-05-18T05:38:29;11.10;99.90
4187;DHT22;2107;52.306;10.484;2023-05-18T05:40:56;10.70;99.90
4187;DHT22;2107;52.306;10.484;2023-05-18T05:43:24;10.90;99.90
4187;DHT22;2107;52.306;10.484;2023-05-18T05:45:51;11.00;99.90
4187;DHT22;2107;52.306;10.484;2023-05-18T05:48:18;11.60;99.90
4187;DHT22;2107;52.306;10.484;2023-05-18T05:50:45;11.70;99.90
4187;DHT22;2107;52.306;10.484;2023-05-18T05:53:12;11.70;99.90
4187;DHT22;2107;52.306;10.484;2023-05-18T05:55:42;12.10;99.90
4187;DHT22;2107;52.306;10.484;2023-05-18T05:58:09;11.70;99.90
4187;DHT22;2107;52.306;10.484;2023-05-18T06:00:37;11.60;99.90
4187;DHT22;2107;52.306;10.484;2023-05-18T06:03:04;11.70;99.90
4187;DHT22;2107;52.306;10.484;2023-05-18T06:05:31;10.90;99.90
4187;DHT22;2107;52.306;10.484;2023-05-18T06:07:58;11.30;99.90
4187;DHT22;2107;52.306;10.484;2023-05-18T06:10:24;11.50;99.90
4187;DHT22;2107;52.306;10.484;2023-05-18T06:12:51;11.70;99.90
4187;DHT22;2107;52.306;10.484;2023-05-18T06:15:18;12.00;99.90
4187;DHT22;2107;52.306;10.484;2023-05-18T06:17:46;12.30;99.90
4187;DHT22;2107;52.306;10.484;2023-05-18T06:20:13;12.50;99.90
4187;DHT22;2107;52.306;10.484;2023-05-18T06:22:40;12.40;99.90
4187;DHT22;2107;52.306;10.484;2023-05-18T06:25:08;12.60;99.90
4187;DHT22;2107;52.306;10.484;2023-05-18T06:27:36;12.80;99.90
4187;DHT22;2107;52.306;10.484;2023-05-18T06:30:04;13.10;99.90
4187;DHT22;2107;52.306;10.484;2023-05-18T06:32:32;13.10;99.90
4187;DHT22;2107;52.306;10.484;2023-05-18T06:35:00;13.50;99.90
4187;DHT22;2107;52.306;10.484;2023-05-18T06:37:28;13.50;99.90
4187;DHT22;2107;52.306;10.484;2023-05-18T06:39:55;13.50;98.00
4187;DHT22;2107;52.306;10.484;2023-05-18T06:42:22;13.50;97.30
4187;DHT22;2107;52.306;10.484;2023-05-18T06:44:49;13.50;96.60
4187;DHT22;2107;52.306;10.484;2023-05-18T06:47:16;13.50;95.50
4187;DHT22;2107;52.306;10.484;2023-05-18T06:49:43;13.40;95.30
4187;DHT22;2107;52.306;10.484;2023-05-18T06:52:11;13.10;94.60
4187;DHT22;2107;52.306;10.484;2023-05-18T06:54:38;11.70;95.80
4187;DHT22;2107;52.306;10.484;2023-05-18T06:57:05;11.40;95.60
4187;DHT22;2107;52.306;10.484;2023-05-18T06:59:32;11.80;96.40
4187;DHT22;2107;52.306;10.484;2023-05-18T07:02:00;11.90;96.00
4187;DHT22;2107;52.306;10.484;2023-05-18T07:04:26;12.10;95.90
4187;DHT22;2107;52.306;10.484;2023-05-18T07:06:53;12.30;95.30
4187;DHT22;2107;52.306;10.484;2023-05-18T07:09:22;12.40;95.40
4187;DHT22;2107;52.306;10.484;2023-05-18T07:11:49;12.60;95.30
4187;DHT22;2107;52.306;10.484;2023-05-18T07:14:16;11.80;95.20
4187;DHT22;2107;52.306;10.484;2023-05-18T07:16:43;12.30;95.70
4187;DHT22;2107;52.306;10.484;2023-05-18T07:19:12;12.60;95.70
4187;DHT22;2107;52.306;10.484;2023-05-18T07:21:39;13.10;94.90
4187;DHT22;2107;52.306;10.484;2023-05-18T07:24:06;13.50;93.80
4187;DHT22;2107;52.306;10.484;2023-05-18T07:26:35;13.80;92.70
4187;DHT22;2107;52.306;10.484;2023-05-18T07:29:01;14.10;92.80
4187;DHT22;2107;52.306;10.484;2023-05-18T07:31:28;14.20;91.30
4187;DHT22;2107;52.306;10.484;2023-05-18T07:33:55;14.50;91.20
4187;DHT22;2107;52.306;10.484;2023-05-18T07:36:22;14.60;91.70
4187;DHT22;2107;52.306;10.484;2023-05-18T07:38:50;14.80;88.80
4187;DHT22;2107;52.306;10.484;2023-05-18T07:41:19;14.30;88.70
4187;DHT22;2107;52.306;10.484;2023-05-18T07:43:48;14.00;87.70
4187;DHT22;2107;52.306;10.484;2023-05-18T07:46:15;14.30;87.20
4187;DHT22;2107;52.306;10.484;2023-05-18T07:48:42;14.50;87.20
4187;DHT22;2107;52.306;10.484;2023-05-18T07:51:09;14.70;87.60
4187;DHT22;2107;52.306;10.484;2023-05-18T07:53:37;15.10;85.70
4187;DHT22;2107;52.306;10.484;2023-05-18T07:56:05;15.20;84.50
4187;DHT22;2107;52.306;10.484;2023-05-18T07:58:33;14.90;84.70
4187;DHT22;2107;52.306;10.484;2023-05-18T08:01:01;15.20;85.90
4187;DHT22;2107;52.306;10.484;2023-05-18T08:03:28;15.60;84.10
4187;DHT22;2107;52.306;10.484;2023-05-18T08:05:55;15.80;83.50
4187;DHT22;2107;52.306;10.484;2023-05-18T08:08:22;16.20;81.60
4187;DHT22;2107;52.306;10.484;2023-05-18T08:10:50;16.20;80.60
4187;DHT22;2107;52.306;10.484;2023-05-18T08:13:17;16.30;79.60
4187;DHT22;2107;52.306;10.484;2023-05-18T08:15:44;16.60;79.10
4187;DHT22;2107;52.306;10.484;2023-05-18T08:18:12;16.70;77.30
4187;DHT22;2107;52.306;10.484;2023-05-18T08:20:39;16.90;76.30
4187;DHT22;2107;52.306;10.484;2023-05-18T08:23:06;17.30;75.90
4187;DHT22;2107;52.306;10.484;2023-05-18T08:25:33;17.30;76.20
4187;DHT22;2107;52.306;10.484;2023-05-18T08:28:00;17.50;74.60
4187;DHT22;2107;52.306;10.484;2023-05-18T08:30:27;17.00;76.90
4187;DHT22;2107;52.306;10.484;2023-05-18T08:32:53;16.50;76.90
4187;DHT22;2107;52.306;10.484;2023-05-18T08:35:22;16.90;73.00
4187;DHT22;2107;52.306;10.484;2023-05-18T08:37:49;17.30;75.00
4187;DHT22;2107;52.306;10.484;2023-05-18T08:40:16;17.60;75.20
4187;DHT22;2107;52.306;10.484;2023-05-18T08:42:47;17.90;73.50
4187;DHT22;2107;52.306;10.484;2023-05-18T08:45:20;17.50;73.20
4187;DHT22;2107;52.306;10.484;2023-05-18T08:47:49;17.80;72.10
4187;DHT22;2107;52.306;10.484;2023-05-18T08:50:17;18.30;69.70
4187;DHT22;2107;52.306;10.484;2023-05-18T08:52:47;18.50;67.90
4187;DHT22;2107;52.306;10.484;2023-05-18T08:55:18;17.60;70.90
4187;DHT22;2107;52.306;10.484;2023-05-18T08:57:48;18.30;68.10
4187;DHT22;2107;52.306;10.484;2023-05-18T09:00:20;18.40;66.80
4187;DHT22;2107;52.306;10.484;2023-05-18T09:02:47;18.60;67.40
4187;DHT22;2107;52.306;10.484;2023-05-18T09:05:15;18.70;65.10
4187;DHT22;2107;52.306;10.484;2023-05-18T09:07:42;17.80;63.80
4187;DHT22;2107;52.306;10.484;2023-05-18T09:10:11;17.90;65.90
4187;DHT22;2107;52.306;10.484;2023-05-18T09:12:41;17.80;64.40
4187;DHT22;2107;52.306;10.484;2023-05-18T09:15:10;17.80;64.70
4187;DHT22;2107;52.306;10.484;2023-05-18T09:17:36;18.10;64.80
4187;DHT22;2107;52.306;10.484;2023-05-18T09:20:04;18.90;63.60
4187;DHT22;2107;52.306;10.484;2023-05-18T09:22:32;19.00;63.00
4187;DHT22;2107;52.306;10.484;2023-05-18T09:25:00;19.00;62.50
4187;DHT22;2107;52.306;10.484;2023-05-18T09:27:29;17.20;62.60
4187;DHT22;2107;52.306;10.484;2023-05-18T09:29:57;18.20;63.50
4187;DHT22;2107;52.306;10.484;2023-05-18T09:32:24;16.40;60.70
4187;DHT22;2107;52.306;10.484;2023-05-18T09:34:52;16.90;64.40
4187;DHT22;2107;52.306;10.484;2023-05-18T09:37:20;16.90;64.00
4187;DHT22;2107;52.306;10.484;2023-05-18T09:39:58;18.30;67.80
4187;DHT22;2107;52.306;10.484;2023-05-18T09:42:34;19.20;63.50
4187;DHT22;2107;52.306;10.484;2023-05-18T09:45:02;20.10;61.70
4187;DHT22;2107;52.306;10.484;2023-05-18T09:47:29;19.80;58.20
4187;DHT22;2107;52.306;10.484;2023-05-18T09:49:56;20.00;59.70
4187;DHT22;2107;52.306;10.484;2023-05-18T09:52:23;20.50;58.80
4187;DHT22;2107;52.306;10.484;2023-05-18T09:54:57;20.70;57.60
4187;DHT22;2107;52.306;10.484;2023-05-18T09:57:25;20.60;56.60
4187;DHT22;2107;52.306;10.484;2023-05-18T10:00:02;18.60;57.20
4187;DHT22;2107;52.306;10.484;2023-05-18T10:02:31;17.00;57.90
4187;DHT22;2107;52.306;10.484;2023-05-18T10:04:58;18.90;61.00
4187;DHT22;2107;52.306;10.484;2023-05-18T10:07:24;20.50;58.30
4187;DHT22;2107;52.306;10.484;2023-05-18T10:10:01;21.00;55.80
4187;DHT22;2107;52.306;10.484;2023-05-18T10:12:28;15.70;57.50
4187;DHT22;2107;52.306;10.484;2023-05-18T10:14:56;16.50;63.30
4187;DHT22;2107;52.306;10.484;2023-05-18T10:17:23;18.30;60.20
4187;DHT22;2107;52.306;10.484;2023-05-18T10:19:54;19.00;58.20
4187;DHT22;2107;52.306;10.484;2023-05-18T10:22:24;19.80;56.80
4187;DHT22;2107;52.306;10.484;2023-05-18T10:24:51;20.20;55.80
4187;DHT22;2107;52.306;10.484;2023-05-18T10:27:23;20.40;55.10
4187;DHT22;2107;52.306;10.484;2023-05-18T10:29:53;19.10;56.30
4187;DHT22;2107;52.306;10.484;2023-05-18T10:32:22;18.20;55.90
4187;DHT22;2107;52.306;10.484;2023-05-18T10:34:51;19.30;57.60
4187;DHT22;2107;52.306;10.484;2023-05-18T10:37:21;20.60;56.30
4187;DHT22;2107;52.306;10.484;2023-05-18T10:39:51;21.50;55.50
4187;DHT22;2107;52.306;10.484;2023-05-18T10:42:21;21.60;54.30
4187;DHT22;2107;52.306;10.484;2023-05-18T10:44:49;21.70;54.50
4187;DHT22;2107;52.306;10.484;2023-05-18T10:47:18;21.40;52.40
4187;DHT22;2107;52.306;10.484;2023-05-18T10:49:48;21.10;53.20
4187;DHT22;2107;52.306;10.484;2023-05-18T10:52:16;21.10;52.20
4187;DHT22;2107;52.306;10.484;2023-05-18T10:54:43;21.70;52.80
4187;DHT22;2107;52.306;10.484;2023-05-18T10:57:12;21.60;53.70
4187;DHT22;2107;52.306;10.484;2023-05-18T10:59:41;20.10;52.90
4187;DHT22;2107;52.306;10.484;2023-05-18T11:02:09;20.40;53.70
4187;DHT22;2107;52.306;10.484;2023-05-18T11:04:38;19.30;55.20
4187;DHT22;2107;52.306;10.484;2023-05-18T11:07:11;20.40;53.40
4187;DHT22;2107;52.306;10.484;2023-05-18T11:09:40;21.40;53.10
4187;DHT22;2107;52.306;10.484;2023-05-18T11:12:11;21.30;51.00
4187;DHT22;2107;52.306;10.484;2023-05-18T11:14:47;20.70;50.50
4187;DHT22;2107;52.306;10.484;2023-05-18T11:17:16;20.50;51.40
4187;DHT22;2107;52.306;10.484;2023-05-18T11:20:12;20.70;50.70
4187;DHT22;2107;52.306;10.484;2023-05-18T11:22:43;20.50;49.90
4187;DHT22;2107;52.306;10.484;2023-05-18T11:25:38;21.40;50.60
4187;DHT22;2107;52.306;10.484;2023-05-18T11:28:07;21.80;49.60
4187;DHT22;2107;52.306;10.484;2023-05-18T11:30:48;20.60;49.90
4187;DHT22;2107;52.306;10.484;2023-05-18T11:33:20;21.30;49.70
4187;DHT22;2107;52.306;10.484;2023-05-18T11:35:59;21.90;48.60
4187;DHT22;2107;52.306;10.484;2023-05-18T11:38:49;22.00;48.00
4187;DHT22;2107;52.306;10.484;2023-05-18T11:41:31;22.50;48.80
4187;DHT22;2107;52.306;10.484;2023-05-18T11:44:15;22.30;48.00
4187;DHT22;2107;52.306;10.484;2023-05-18T11:46:54;21.90;47.30
4187;DHT22;2107;52.306;10.484;2023-05-18T11:49:22;21.40;47.40
4187;DHT22;2107;52.306;10.484;2023-05-18T11:52:01;21.50;47.70
4187;DHT22;2107;52.306;10.484;2023-05-18T11:54:33;21.30;46.50
4187;DHT22;2107;52.306;10.484;2023-05-18T11:57:01;19.10;47.50
4187;DHT22;2107;52.306;10.484;2023-05-18T11:59:32;20.00;49.30
4187;DHT22;2107;52.306;10.484;2023-05-18T12:02:00;20.80;48.60
4187;DHT22;2107;52.306;10.484;2023-05-18T12:04:28;21.70;47.20
4187;DHT22;2107;52.306;10.484;2023-05-18T12:06:56;22.10;46.10
4187;DHT22;2107;52.306;10.484;2023-05-18T12:09:24;22.10;45.50
4187;DHT22;2107;52.306;10.484;2023-05-18T12:11:54;22.60;46.30
4187;DHT22;2107;52.306;10.484;2023-05-18T12:14:20;21.50;43.90
4187;DHT22;2107;52.306;10.484;2023-05-18T12:16:48;20.60;47.20
4187;DHT22;2107;52.306;10.484;2023-05-18T12:19:16;20.20;48.10
4187;DHT22;2107;52.306;10.484;2023-05-18T12:21:44;20.00;48.70
4187;DHT22;2107;52.306;10.484;2023-05-18T12:24:11;20.10;48.00
4187;DHT22;2107;52.306;10.484;2023-05-18T12:26:38;17.80;49.80
4187;DHT22;2107;52.306;10.484;2023-05-18T12:29:07;18.40;49.90
4187;DHT22;2107;52.306;10.484;2023-05-18T12:31:39;18.60;49.50
4187;DHT22;2107;52.306;10.484;2023-05-18T12:34:08;19.80;49.10
4187;DHT22;2107;52.306;10.484;2023-05-18T12:36:40;19.80;48.80
4187;DHT22;2107;52.306;10.484;2023-05-18T12:39:08;20.60;47.90
4187;DHT22;2107;52.306;10.484;2023-05-18T12:41:34;20.30;47.30
4187;DHT22;2107;52.306;10.484;2023-05-18T12:44:01;20.40;46.50
4187;DHT22;2107;52.306;10.484;2023-05-18T12:46:30;21.20;47.00
4187;DHT22;2107;52.306;10.484;2023-05-18T12:48:58;21.40;46.00
4187;DHT22;2107;52.306;10.484;2023-05-18T12:51:31;22.40;46.70
4187;DHT22;2107;52.306;10.484;2023-05-18T12:53:59;20.90;44.90
4187;DHT22;2107;52.306;10.484;2023-05-18T12:56:26;21.50;44.70
4187;DHT22;2107;52.306;10.484;2023-05-18T12:58:58;22.60;44.10
4187;DHT22;2107;52.306;10.484;2023-05-18T13:01:27;23.30;43.40
4187;DHT22;2107;52.306;10.484;2023-05-18T13:03:57;24.10;43.50
4187;DHT22;2107;52.306;10.484;2023-05-18T13:06:24;23.80;42.80
4187;DHT22;2107;52.306;10.484;2023-05-18T13:08:54;23.80;42.30
4187;DHT22;2107;52.306;10.484;2023-05-18T13:11:25;24.10;42.50
4187;DHT22;2107;52.306;10.484;2023-05-18T13:14:03;23.90;41.80
4187;DHT22;2107;52.306;10.484;2023-05-18T13:16:32;18.90;42.50
4187;DHT22;2107;52.306;10.484;2023-05-18T13:19:01;19.50;46.60
4187;DHT22;2107;52.306;10.484;2023-05-18T13:21:28;21.00;44.20
4187;DHT22;2107;52.306;10.484;2023-05-18T13:23:55;22.70;44.30
4187;DHT22;2107;52.306;10.484;2023-05-18T13:26:23;23.90;43.00
4187;DHT22;2107;52.306;10.484;2023-05-18T13:28:52;23.00;39.00
4187;DHT22;2107;52.306;10.484;2023-05-18T13:31:20;23.10;41.30
4187;DHT22;2107;52.306;10.484;2023-05-18T13:33:48;23.90;40.90
4187;DHT22;2107;52.306;10.484;2023-05-18T13:36:17;24.20;40.20
4187;DHT22;2107;52.306;10.484;2023-05-18T13:38:47;20.90;39.00
4187;DHT22;2107;52.306;10.484;2023-05-18T13:41:14;19.10;41.20
4187;DHT22;2107;52.306;10.484;2023-05-18T13:43:41;20.70;44.60
4187;DHT22;2107;52.306;10.484;2023-05-18T13:46:08;21.10;41.30
4187;DHT22;2107;52.306;10.484;2023-05-18T13:48:35;22.40;42.40
4187;DHT22;2107;52.306;10.484;2023-05-18T13:51:02;24.00;41.60
4187;DHT22;2107;52.306;10.484;2023-05-18T13:53:30;26.00;39.90
4187;DHT22;2107;52.306;10.484;2023-05-18T13:55:57;26.30;37.80
4187;DHT22;2107;52.306;10.484;2023-05-18T13:58:24;25.90;39.10
4187;DHT22;2107;52.306;10.484;2023-05-18T14:00:50;25.20;37.10
4187;DHT22;2107;52.306;10.484;2023-05-18T14:03:19;24.40;37.40
4187;DHT22;2107;52.306;10.484;2023-05-18T14:05:46;21.20;38.00
4187;DHT22;2107;52.306;10.484;2023-05-18T14:08:12;19.20;42.60
4187;DHT22;2107;52.306;10.484;2023-05-18T14:10:41;20.20;43.00
4187;DHT22;2107;52.306;10.484;2023-05-18T14:13:08;21.20;42.00
4187;DHT22;2107;52.306;10.484;2023-05-18T14:15:35;21.80;41.30
4187;DHT22;2107;52.306;10.484;2023-05-18T14:18:02;22.40;40.20
4187;DHT22;2107;52.306;10.484;2023-05-18T14:20:28;22.90;39.30
4187;DHT22;2107;52.306;10.484;2023-05-18T14:22:55;22.50;38.50
4187;DHT22;2107;52.306;10.484;2023-05-18T14:25:22;21.80;39.60
4187;DHT22;2107;52.306;10.484;2023-05-18T14:27:50;22.80;40.10
4187;DHT22;2107;52.306;10.484;2023-05-18T14:30:17;23.80;38.90
4187;DHT22;2107;52.306;10.484;2023-05-18T14:32:44;23.40;38.50
4187;DHT22;2107;52.306;10.484;2023-05-18T14:35:11;22.40;38.90
4187;DHT22;2107;52.306;10.484;2023-05-18T14:37:38;22.10;40.10
4187;DHT22;2107;52.306;10.484;2023-05-18T14:40:06;22.50;40.10
4187;DHT22;2107;52.306;10.484;2023-05-18T14:42:33;22.80;39.70
4187;DHT22;2107;52.306;10.484;2023-05-18T14:45:02;22.80;39.90
4187;DHT22;2107;52.306;10.484;2023-05-18T14:47:29;22.50;40.50
4187;DHT22;2107;52.306;10.484;2023-05-18T14:49:56;22.60;39.90
4187;DHT22;2107;52.306;10.484;2023-05-18T14:52:23;21.90;40.60
4187;DHT22;2107;52.306;10.484;2023-05-18T14:54:50;21.50;40.00
4187;DHT22;2107;52.306;10.484;2023-05-18T14:57:17;22.30;40.30
4187;DHT22;2107;52.306;10.484;2023-05-18T14:59:44;23.30;40.00
4187;DHT22;2107;52.306;10.484;2023-05-18T15:02:12;25.00;38.30
4187;DHT22;2107;52.306;10.484;2023-05-18T15:04:39;26.10;37.10
4187;DHT22;2107;52.306;10.484;2023-05-18T15:07:06;24.70;37.20
4187;DHT22;2107;52.306;10.484;2023-05-18T15:09:33;23.10;37.40
4187;DHT22;2107;52.306;10.484;2023-05-18T15:12:00;20.50;37.00
4187;DHT22;2107;52.306;10.484;2023-05-18T15:14:26;21.90;38.30
4187;DHT22;2107;52.306;10.484;2023-05-18T15:16:53;22.80;38.70
4187;DHT22;2107;52.306;10.484;2023-05-18T15:19:22;23.90;38.10
4187;DHT22;2107;52.306;10.484;2023-05-18T15:21:48;23.50;37.20
4187;DHT22;2107;52.306;10.484;2023-05-18T15:24:16;21.70;38.70
4187;DHT22;2107;52.306;10.484;2023-05-18T15:26:43;21.10;39.30
4187;DHT22;2107;52.306;10.484;2023-05-18T15:29:10;19.10;38.10
4187;DHT22;2107;52.306;10.484;2023-05-18T15:31:37;19.00;40.80
4187;DHT22;2107;52.306;10.484;2023-05-18T15:34:04;18.90;41.60
4187;DHT22;2107;52.306;10.484;2023-05-18T15:36:32;19.40;41.70
4187;DHT22;2107;52.306;10.484;2023-05-18T15:39:01;20.00;41.40
4187;DHT22;2107;52.306;10.484;2023-05-18T15:41:31;19.70;42.00
4187;DHT22;2107;52.306;10.484;2023-05-18T15:43:58;19.30;44.00
4187;DHT22;2107;52.306;10.484;2023-05-18T15:46:27;17.00;46.30
4187;DHT22;2107;52.306;10.484;2023-05-18T15:48:56;17.70;46.40
4187;DHT22;2107;52.306;10.484;2023-05-18T15:51:23;16.70;48.10
4187;DHT22;2107;52.306;10.484;2023-05-18T15:53:51;16.50;48.60
4187;DHT22;2107;52.306;10.484;2023-05-18T15:56:18;17.00;47.50
4187;DHT22;2107;52.306;10.484;2023-05-18T15:58:46;15.50;49.50
4187;DHT22;2107;52.306;10.484;2023-05-18T16:01:13;16.70;49.80